Plum Branch, SC (29845)

10:01 PM EDT on July 28, 2016 (GMT -0400)
Plum Branch Yacht Club | | Change Station

Elev 354 ft 33.81 °N, 82.31 °W | Updated 4 seconds ago

Clear
Clear
87.5 °F
Feels Like 96 °F
N
3.0
Wind Variable Wind from West
Gusts 7.0 mph

Today
High -- | Low -- °F
--% Chance of Precip.
Yesterday
High -- | Low -- °F
Precip. -- in
Pressure 29.96 in
Visibility 10.0 miles
Clouds Clear
Heat Index 96 °F
Dew Point 74 °F
Humidity 65%
Rainfall 0.00 in
Snow Depth Not available.
6:38 AM 8:32 PM
Waning Crescent, 26% visible
METAR KDNL 290153Z AUTO 26004KT 10SM CLR 32/19 A2997 RMK AO2 SLP143 T03170189
Pressure 29.96 in
Visibility 10.0 miles
Clouds Clear
Heat Index 96 °F
Dew Point 74 °F
Humidity 65%
Rainfall 0.00 in
Snow Depth Not available.
6:38 AM 8:32 PM
Waning Crescent, 26% visible
METAR KDNL 290153Z AUTO 26004KT 10SM CLR 32/19 A2997 RMK AO2 SLP143 T03170189

10-Day Weather Forecast

Almanac

Astronomy

Jul. 28, 2016 Rise Set
Actual Time
Civil Twilight
Nautical Twilight
Astronomical Twilight
Moon
Length of Visible Light
Length of Day
Tomorrow will be .
, % of the Moon is Illuminated

Today's Extremes

State Highs State Lows

Community

WunderPhotos

Upload Photos

1,928,265 photos uploaded!

WunderBlog® & News

Nearby

Air Quality

  Air Quality AQ Index Pollutant
Not available.

Snow Depth

Station Depth Elevation

Earthquake Activity

City Distance Mag. Time & Date
Minimum magnitude displayed is 2.5.

Coastal Water Temperatures

Place Temperature

Stations

Nearby Weather Stations

Station Location Temp. Windchill Dew Point Humidity Wind Precip. Elev Updated Type
                   

Watches & Warnings

There are currently no watches in effect.